createdAt,value
2018-06-05T00:01:49.410Z,22.50
2018-06-05T00:04:17.571Z,22.50
2018-06-05T00:06:45.733Z,22.60
2018-06-05T00:09:13.872Z,22.50
2018-06-05T00:11:42.041Z,22.60
2018-06-05T00:14:10.180Z,22.50
2018-06-05T00:16:38.327Z,22.60
2018-06-05T00:19:06.473Z,22.50
2018-06-05T00:21:34.656Z,22.40
2018-06-05T00:24:02.787Z,22.60
2018-06-05T00:26:30.939Z,22.50
2018-06-05T00:28:59.080Z,22.60
2018-06-05T00:31:27.248Z,22.80
2018-06-05T00:33:55.392Z,23.00
2018-06-05T00:36:23.531Z,22.80
2018-06-05T00:38:51.694Z,22.70
2018-06-05T00:41:19.836Z,22.60
2018-06-05T00:43:47.979Z,22.70
2018-06-05T00:46:16.747Z,22.70
2018-06-05T00:48:44.905Z,22.50
2018-06-05T00:51:24.526Z,22.40
2018-06-05T00:53:52.671Z,22.60
2018-06-05T00:56:21.295Z,22.50
2018-06-05T00:58:49.464Z,22.60
2018-06-05T01:01:17.692Z,22.70
2018-06-05T01:03:46.399Z,22.80
2018-06-05T01:06:14.560Z,22.70
2018-06-05T01:08:42.764Z,22.50
2018-06-05T01:11:10.921Z,22.30
2018-06-05T01:13:39.063Z,22.20
2018-06-05T01:16:07.203Z,22.10
2018-06-05T01:18:35.365Z,22.20
2018-06-05T01:21:03.550Z,22.30
2018-06-05T01:23:31.708Z,22.30
2018-06-05T01:25:59.855Z,22.50
2018-06-05T01:28:28.007Z,22.60
2018-06-05T01:30:56.574Z,22.60
2018-06-05T01:33:24.750Z,22.70
2018-06-05T01:35:52.887Z,22.80
2018-06-05T01:38:21.023Z,22.60
2018-06-05T01:40:49.152Z,22.40
2018-06-05T01:43:17.281Z,22.50
2018-06-05T01:45:45.398Z,22.60
2018-06-05T01:48:13.555Z,22.80
2018-06-05T01:50:41.679Z,22.70
2018-06-05T01:53:09.836Z,22.70
2018-06-05T01:55:37.967Z,22.70
2018-06-05T01:58:06.669Z,22.50
2018-06-05T02:00:34.796Z,22.60
2018-06-05T02:03:02.967Z,22.70
2018-06-05T02:05:31.091Z,22.60
2018-06-05T02:08:00.096Z,22.70
2018-06-05T02:10:28.231Z,22.60
2018-06-05T02:12:56.423Z,22.60
2018-06-05T02:15:24.571Z,22.90
2018-06-05T02:17:52.701Z,22.90
2018-06-05T02:20:20.840Z,23.00
2018-06-05T02:22:48.972Z,22.90
2018-06-05T02:25:17.096Z,22.90
2018-06-05T02:27:45.248Z,22.80
2018-06-05T02:30:13.395Z,22.70
2018-06-05T02:32:41.532Z,22.80
2018-06-05T02:35:09.671Z,23.00
2018-06-05T02:37:37.788Z,23.00
2018-06-05T02:40:05.943Z,22.90
2018-06-05T02:42:34.197Z,22.90
2018-06-05T02:45:02.351Z,22.70
2018-06-05T02:47:30.509Z,22.70
2018-06-05T02:49:59.168Z,22.10
2018-06-05T02:52:27.352Z,22.80
2018-06-05T02:54:55.502Z,22.70
2018-06-05T02:57:23.643Z,22.70
2018-06-05T02:59:51.808Z,22.70
2018-06-05T03:02:19.954Z,22.80
2018-06-05T03:04:48.093Z,22.90
2018-06-05T03:07:17.040Z,23.00
2018-06-05T03:09:45.221Z,23.10
2018-06-05T03:12:13.375Z,23.10
2018-06-05T03:14:41.524Z,23.00
2018-06-05T03:17:09.672Z,23.00
2018-06-05T03:19:37.811Z,23.00
2018-06-05T03:22:05.963Z,23.10
2018-06-05T03:24:34.108Z,23.10
2018-06-05T03:27:02.288Z,23.10
2018-06-05T03:29:30.439Z,23.10
2018-06-05T03:31:58.583Z,23.20
2018-06-05T03:34:26.826Z,23.10
2018-06-05T03:36:55.945Z,23.00
2018-06-05T03:39:24.111Z,23.00
2018-06-05T03:41:52.268Z,23.10
2018-06-05T03:44:20.583Z,23.10
2018-06-05T03:46:48.736Z,23.10
2018-06-05T03:49:17.110Z,22.90
2018-06-05T03:51:45.333Z,23.00
2018-06-05T03:54:13.499Z,23.00
2018-06-05T03:56:41.652Z,23.00
2018-06-05T03:59:09.808Z,23.10
2018-06-05T04:01:37.968Z,22.90
2018-06-05T04:04:06.116Z,22.90
2018-06-05T04:06:34.283Z,22.90
2018-06-05T04:09:02.492Z,22.70
2018-06-05T04:11:30.638Z,22.70
2018-06-05T04:13:58.793Z,22.80
2018-06-05T04:18:54.904Z,22.60
2018-06-05T04:21:23.057Z,22.80
2018-06-05T04:23:51.218Z,22.90
2018-06-05T04:26:19.388Z,22.80
2018-06-05T04:28:47.551Z,22.70
2018-06-05T04:31:15.700Z,22.80
2018-06-05T04:33:43.862Z,22.90
2018-06-05T04:36:12.040Z,22.90
2018-06-05T04:38:40.399Z,22.90
2018-06-05T04:41:08.543Z,22.90
2018-06-05T04:43:36.675Z,23.00
2018-06-05T04:46:04.856Z,23.00
2018-06-05T04:48:33.006Z,22.90
2018-06-05T04:51:01.252Z,22.90
2018-06-05T04:53:29.360Z,22.90
2018-06-05T04:55:57.495Z,23.00
2018-06-05T04:58:25.727Z,23.00
2018-06-05T05:00:53.879Z,22.90
2018-06-05T05:03:22.020Z,22.90
2018-06-05T05:05:50.155Z,23.00
2018-06-05T05:08:18.323Z,23.10
2018-06-05T05:13:14.451Z,23.20
2018-06-05T05:15:42.587Z,23.00
2018-06-05T05:18:10.718Z,23.00
2018-06-05T05:20:38.888Z,22.90
2018-06-05T05:23:07.023Z,22.70
2018-06-05T05:25:35.159Z,22.60
2018-06-05T05:28:03.291Z,22.70
2018-06-05T05:30:32.455Z,22.40
2018-06-05T05:33:00.577Z,22.50
2018-06-05T05:35:28.746Z,22.30
2018-06-05T05:37:56.929Z,22.40
2018-06-05T05:40:25.115Z,22.50
2018-06-05T05:42:53.291Z,22.40
2018-06-05T05:45:21.468Z,22.40
2018-06-05T05:47:49.638Z,22.40
2018-06-05T05:50:17.793Z,22.40
2018-06-05T05:52:45.951Z,22.50
2018-06-05T05:55:14.152Z,22.60
2018-06-05T05:57:42.286Z,22.50
2018-06-05T06:00:10.459Z,22.40
2018-06-05T06:02:38.654Z,22.40
2018-06-05T06:05:06.845Z,22.40
2018-06-05T06:07:35.037Z,22.40
2018-06-05T06:10:03.201Z,22.50
2018-06-05T06:12:31.346Z,22.50
2018-06-05T06:14:59.513Z,22.50
2018-06-05T06:17:27.677Z,22.40
2018-06-05T06:19:55.932Z,22.60
2018-06-05T06:22:24.097Z,22.60
2018-06-05T06:24:52.252Z,22.60
2018-06-05T06:27:20.387Z,22.50
2018-06-05T06:29:48.519Z,22.50
2018-06-05T06:32:17.460Z,22.80
2018-06-05T06:34:45.715Z,22.70
2018-06-05T06:37:14.744Z,22.70
2018-06-05T06:39:42.900Z,22.90
2018-06-05T06:42:11.077Z,22.90
2018-06-05T06:44:39.192Z,23.00
2018-06-05T06:47:07.359Z,22.80
2018-06-05T06:49:35.506Z,23.00
2018-06-05T06:52:03.753Z,23.10
2018-06-05T06:54:32.526Z,23.20
2018-06-05T07:01:56.584Z,23.40
2018-06-05T07:04:24.780Z,23.20
2018-06-05T07:06:52.924Z,23.30
2018-06-05T07:09:21.055Z,23.40
2018-06-05T07:11:49.195Z,23.50
2018-06-05T07:14:17.491Z,23.30
2018-06-05T07:16:45.634Z,23.00
2018-06-05T07:19:13.774Z,23.20
2018-06-05T07:21:42.012Z,23.40
2018-06-05T07:24:10.153Z,23.30
2018-06-05T07:26:38.307Z,23.40
2018-06-05T07:29:06.890Z,23.40
2018-06-05T07:31:35.048Z,23.50
2018-06-05T07:34:03.213Z,23.40
2018-06-05T07:36:31.352Z,23.20
2018-06-05T07:38:59.523Z,23.30
2018-06-05T07:41:27.797Z,23.50
2018-06-05T07:43:55.960Z,23.40
2018-06-05T07:46:25.076Z,23.50
2018-06-05T07:48:53.256Z,23.60
2018-06-05T07:51:21.416Z,23.70
2018-06-05T07:53:49.555Z,23.80
2018-06-05T07:56:17.711Z,23.90
2018-06-05T07:58:45.870Z,23.90
2018-06-05T08:01:14.011Z,23.90
2018-06-05T08:03:42.167Z,23.80
2018-06-05T08:06:10.341Z,23.70
2018-06-05T08:08:38.478Z,23.70
2018-06-05T08:11:06.669Z,23.70
2018-06-05T08:13:34.815Z,23.80
2018-06-05T08:16:02.962Z,23.90
2018-06-05T08:18:31.160Z,24.10
2018-06-05T08:20:59.292Z,24.20
2018-06-05T08:23:27.464Z,24.30
2018-06-05T08:25:55.641Z,24.40
2018-06-05T08:28:23.812Z,24.30
2018-06-05T08:30:51.965Z,24.30
2018-06-05T08:33:20.132Z,24.30
2018-06-05T08:35:48.275Z,24.50
2018-06-05T08:38:16.456Z,24.70
2018-06-05T08:40:44.663Z,24.60
2018-06-05T08:43:12.784Z,24.50
2018-06-05T08:45:40.909Z,24.40
2018-06-05T08:48:09.048Z,24.50
2018-06-05T08:50:37.172Z,24.60
2018-06-05T08:53:05.316Z,24.70
2018-06-05T08:55:33.459Z,24.40
2018-06-05T09:00:29.509Z,24.20
2018-06-05T09:02:57.643Z,24.20
2018-06-05T09:05:25.817Z,24.20
2018-06-05T09:07:53.944Z,24.20
2018-06-05T09:10:22.106Z,24.30
2018-06-05T09:12:50.269Z,24.30
2018-06-05T09:15:18.380Z,24.00
2018-06-05T09:17:46.540Z,24.20
2018-06-05T09:20:14.667Z,24.30
2018-06-05T09:22:42.810Z,24.40
2018-06-05T09:25:10.950Z,24.50
2018-06-05T09:30:07.060Z,24.80
2018-06-05T09:32:35.202Z,24.90
2018-06-05T09:35:03.344Z,25.10
2018-06-05T09:37:31.479Z,25.20
2018-06-05T09:39:59.680Z,25.00
2018-06-05T09:42:27.843Z,25.10
2018-06-05T09:44:56.000Z,25.40
2018-06-05T09:47:24.156Z,25.40
2018-06-05T09:49:52.311Z,25.60
2018-06-05T09:52:20.521Z,25.70
2018-06-05T09:57:16.590Z,25.80
2018-06-05T09:59:44.735Z,25.90
2018-06-05T10:02:12.930Z,25.90
2018-06-05T10:04:41.076Z,25.70
2018-06-05T10:07:09.276Z,25.80
2018-06-05T10:09:37.619Z,25.90
2018-06-05T10:12:05.803Z,25.80
2018-06-05T10:14:34.000Z,25.60
2018-06-05T10:17:02.167Z,25.50
2018-06-05T10:19:30.328Z,25.30
2018-06-05T10:21:58.472Z,25.40
2018-06-05T10:24:26.709Z,25.80
2018-06-05T10:26:54.859Z,26.20
2018-06-05T10:29:23.012Z,26.40
2018-06-05T10:31:51.160Z,26.50
2018-06-05T10:34:19.412Z,26.20
2018-06-05T10:36:47.622Z,26.10
2018-06-05T10:39:15.778Z,26.10
2018-06-05T10:41:43.931Z,26.20
2018-06-05T10:44:12.107Z,26.10
2018-06-05T10:46:40.788Z,26.20
2018-06-05T10:49:08.920Z,26.20
2018-06-05T10:51:37.071Z,26.30
2018-06-05T10:54:05.259Z,26.50
2018-06-05T10:56:33.405Z,26.40
2018-06-05T11:01:29.451Z,26.70
2018-06-05T11:03:57.612Z,26.70
2018-06-05T11:06:25.843Z,26.40
2018-06-05T11:08:53.989Z,26.40
2018-06-05T11:11:22.253Z,26.30
2018-06-05T11:13:50.440Z,26.30
2018-06-05T11:16:18.587Z,26.40
2018-06-05T11:18:46.771Z,26.30
2018-06-05T11:23:43.146Z,26.40
2018-06-05T11:26:11.291Z,26.40
2018-06-05T11:28:40.017Z,26.50
2018-06-05T11:31:08.175Z,26.60
2018-06-05T11:33:36.479Z,26.30
2018-06-05T11:36:04.616Z,26.50
2018-06-05T11:38:32.775Z,26.50
2018-06-05T11:41:00.906Z,26.60
2018-06-05T11:43:29.024Z,26.50
2018-06-05T11:45:57.167Z,26.50
2018-06-05T11:48:25.348Z,26.50
2018-06-05T11:50:53.475Z,26.60
2018-06-05T11:53:21.621Z,26.70
2018-06-05T11:55:49.755Z,26.50
2018-06-05T11:58:20.419Z,26.70
2018-06-05T12:00:48.785Z,26.70
2018-06-05T12:03:16.875Z,26.70
2018-06-05T12:05:45.004Z,26.90
2018-06-05T12:08:13.131Z,27.00
2018-06-05T12:10:41.269Z,27.10
2018-06-05T12:13:09.416Z,26.90
2018-06-05T12:15:37.544Z,26.70
2018-06-05T12:20:33.614Z,26.70
2018-06-05T12:23:01.757Z,26.80
2018-06-05T12:25:29.899Z,26.60
2018-06-05T12:27:58.018Z,26.50
2018-06-05T12:30:26.180Z,26.40
2018-06-05T12:32:54.479Z,26.40
2018-06-05T12:35:22.607Z,26.80
2018-06-05T12:37:50.731Z,27.20
2018-06-05T12:40:18.898Z,27.40
2018-06-05T12:42:47.040Z,27.40
2018-06-05T12:45:15.575Z,27.30
2018-06-05T12:47:43.903Z,27.10
2018-06-05T12:50:12.064Z,27.20
2018-06-05T12:52:40.217Z,27.30
2018-06-05T12:55:08.388Z,27.40
2018-06-05T12:57:36.631Z,27.50
2018-06-05T13:00:04.925Z,27.60
2018-06-05T13:05:01.060Z,27.60
2018-06-05T13:07:29.263Z,27.30
2018-06-05T13:09:57.421Z,27.40
2018-06-05T13:12:25.622Z,27.20
2018-06-05T13:14:53.759Z,27.50
2018-06-05T13:19:49.824Z,27.80
2018-06-05T13:22:18.350Z,27.70
2018-06-05T13:24:46.518Z,27.80
2018-06-05T13:27:14.668Z,28.00
2018-06-05T13:29:42.796Z,28.30
2018-06-05T13:32:10.947Z,28.30
2018-06-05T13:34:39.178Z,28.10
2018-06-05T13:37:07.332Z,27.90
2018-06-05T13:39:35.511Z,28.00
2018-06-05T13:42:03.667Z,28.00
2018-06-05T13:44:31.863Z,28.20
2018-06-05T13:47:00.011Z,28.60
2018-06-05T13:49:28.160Z,29.00
2018-06-05T13:51:56.324Z,29.10
2018-06-05T13:54:24.519Z,29.20
2018-06-05T13:56:52.679Z,29.40
2018-06-05T13:59:20.841Z,29.50
2018-06-05T14:01:49.038Z,29.30
2018-06-05T14:04:17.211Z,29.70
2018-06-05T14:06:45.372Z,30.00
2018-06-05T14:09:13.578Z,29.80
2018-06-05T14:11:41.667Z,29.80
2018-06-05T14:14:09.815Z,30.10
2018-06-05T14:16:37.987Z,30.30
2018-06-05T14:19:06.150Z,31.30
2018-06-05T14:21:34.319Z,31.70
2018-06-05T14:24:02.535Z,31.90
2018-06-05T14:26:30.697Z,32.20
2018-06-05T14:28:58.852Z,32.40
2018-06-05T14:31:27.007Z,32.10
2018-06-05T14:33:55.152Z,31.90
2018-06-05T14:36:23.322Z,31.80
2018-06-05T14:38:51.471Z,31.90
2018-06-05T14:41:19.691Z,31.70
2018-06-05T14:43:47.864Z,31.30
2018-06-05T14:46:16.011Z,30.90
2018-06-05T14:48:44.182Z,30.70
2018-06-05T14:51:12.759Z,30.60
2018-06-05T14:56:08.856Z,30.40
2018-06-05T14:58:37.006Z,30.50
2018-06-05T15:01:05.175Z,30.60
2018-06-05T15:03:33.335Z,30.50
2018-06-05T15:06:01.483Z,30.10
2018-06-05T15:08:29.655Z,29.60
2018-06-05T15:10:57.835Z,29.40
2018-06-05T15:13:25.993Z,29.60
2018-06-05T15:15:54.208Z,29.70
2018-06-05T15:18:22.360Z,29.20
2018-06-05T15:20:50.533Z,29.20
2018-06-05T15:23:18.682Z,28.90
2018-06-05T15:25:46.815Z,29.00
2018-06-05T15:28:14.972Z,29.30
2018-06-05T15:30:43.113Z,29.40
2018-06-05T15:33:11.887Z,29.30
2018-06-05T15:35:40.081Z,29.20
2018-06-05T15:38:08.243Z,29.20
2018-06-05T15:40:36.419Z,29.40
2018-06-05T15:43:04.619Z,29.60
2018-06-05T15:45:32.787Z,29.50
2018-06-05T15:48:00.934Z,29.40
2018-06-05T15:50:29.150Z,29.20
2018-06-05T15:52:57.265Z,29.20
2018-06-05T15:55:25.412Z,29.20
2018-06-05T15:57:53.543Z,29.20
2018-06-05T16:00:21.720Z,29.30
2018-06-05T16:02:49.876Z,29.40
2018-06-05T16:05:18.663Z,29.40
2018-06-05T16:07:46.816Z,29.10
2018-06-05T16:10:14.970Z,29.00
2018-06-05T16:12:43.123Z,28.60
2018-06-05T16:15:11.279Z,28.50
2018-06-05T16:17:39.459Z,28.30
2018-06-05T16:20:07.613Z,28.40
2018-06-05T16:22:35.771Z,28.50
2018-06-05T16:25:03.937Z,28.80
2018-06-05T16:27:32.087Z,28.70
2018-06-05T16:30:00.304Z,28.50
2018-06-05T16:32:28.471Z,28.30
2018-06-05T16:34:56.639Z,28.20
2018-06-05T16:37:24.816Z,28.50
2018-06-05T16:39:53.367Z,28.40
2018-06-05T16:42:21.509Z,28.50
2018-06-05T16:44:49.648Z,28.60
2018-06-05T16:49:53.297Z,28.60
2018-06-05T16:52:21.531Z,28.60
2018-06-05T16:55:23.403Z,28.50
2018-06-05T16:57:51.557Z,28.30
2018-06-05T17:00:19.723Z,28.10
2018-06-05T17:02:47.855Z,28.10
2018-06-05T17:05:16.031Z,28.20
2018-06-05T17:07:44.187Z,28.20
2018-06-05T17:10:12.321Z,28.10
2018-06-05T17:12:40.459Z,28.00
2018-06-05T17:15:08.647Z,27.80
2018-06-05T17:17:36.788Z,27.50
2018-06-05T17:20:04.908Z,27.30
2018-06-05T17:22:33.051Z,27.30
2018-06-05T17:25:01.223Z,27.00
2018-06-05T17:27:29.637Z,27.00
2018-06-05T17:29:58.213Z,27.00
2018-06-05T17:32:32.471Z,26.80
2018-06-05T17:35:12.114Z,27.10
2018-06-05T17:37:40.268Z,27.20
2018-06-05T17:40:08.391Z,27.20
2018-06-05T17:42:36.559Z,27.30
2018-06-05T17:45:04.687Z,27.10
2018-06-05T17:50:00.783Z,27.00
2018-06-05T17:52:28.927Z,26.80
2018-06-05T17:54:57.051Z,26.60
2018-06-05T17:57:25.191Z,26.60
2018-06-05T17:59:53.331Z,26.70
2018-06-05T18:02:21.468Z,26.60
2018-06-05T18:04:49.608Z,26.40
2018-06-05T18:12:14.566Z,26.20
2018-06-05T18:14:49.084Z,26.20
2018-06-05T18:17:17.198Z,25.90
2018-06-05T18:19:45.346Z,25.90
2018-06-05T18:22:13.489Z,26.00
2018-06-05T18:24:41.611Z,26.00
2018-06-05T18:27:09.742Z,26.00
2018-06-05T18:29:37.876Z,25.60
2018-06-05T18:32:06.016Z,25.50
2018-06-05T18:34:34.147Z,25.40
2018-06-05T18:37:02.269Z,25.50
2018-06-05T18:39:30.435Z,25.40
2018-06-05T18:41:58.660Z,25.40
2018-06-05T18:44:26.893Z,25.30
2018-06-05T18:46:55.085Z,25.30
2018-06-05T18:49:23.247Z,25.30
2018-06-05T18:51:51.405Z,25.30
2018-06-05T18:54:19.602Z,25.20
2018-06-05T18:56:47.748Z,25.20
2018-06-05T18:59:15.883Z,25.20
2018-06-05T19:01:44.035Z,25.10
2018-06-05T19:04:12.195Z,25.20
2018-06-05T19:06:40.368Z,25.20
2018-06-05T19:09:08.622Z,25.20
2018-06-05T19:11:36.767Z,25.10
2018-06-05T19:14:04.940Z,25.00
2018-06-05T19:16:33.107Z,24.90
2018-06-05T19:19:01.280Z,24.90
2018-06-05T19:21:29.443Z,24.80
2018-06-05T19:23:57.607Z,24.70
2018-06-05T19:26:25.846Z,24.60
2018-06-05T19:28:54.871Z,24.60
2018-06-05T19:31:23.019Z,24.50
2018-06-05T19:33:51.164Z,24.50
2018-06-05T19:36:19.327Z,24.50
2018-06-05T19:38:47.577Z,24.40
2018-06-05T19:41:15.806Z,24.40
2018-06-05T19:43:43.921Z,24.30
2018-06-05T19:46:12.059Z,24.20
2018-06-05T19:48:40.269Z,24.20
2018-06-05T19:51:08.388Z,24.10
2018-06-05T19:53:36.527Z,23.90
2018-06-05T19:56:04.672Z,23.80
2018-06-05T19:58:32.820Z,23.80
2018-06-05T20:01:00.968Z,23.60
2018-06-05T20:03:29.112Z,23.60
2018-06-05T20:05:57.260Z,23.40
2018-06-05T20:08:25.483Z,23.40
2018-06-05T20:10:53.631Z,23.50
2018-06-05T20:13:21.804Z,23.50
2018-06-05T20:15:49.935Z,23.30
2018-06-05T20:18:18.112Z,23.30
2018-06-05T20:20:47.317Z,23.30
2018-06-05T20:26:02.068Z,23.30
2018-06-05T20:28:30.198Z,23.30
2018-06-05T20:30:58.331Z,23.20
2018-06-05T20:33:26.483Z,23.10
2018-06-05T20:35:54.610Z,23.00
2018-06-05T20:38:22.772Z,23.00
2018-06-05T20:40:50.915Z,23.00
2018-06-05T20:43:19.239Z,22.90
2018-06-05T20:45:47.407Z,22.80
2018-06-05T20:48:15.520Z,22.70
2018-06-05T20:50:43.644Z,22.80
2018-06-05T20:53:11.788Z,22.80
2018-06-05T20:55:39.906Z,22.80
2018-06-05T20:58:08.144Z,22.80
2018-06-05T21:00:36.288Z,22.80
2018-06-05T21:03:05.009Z,22.70
2018-06-05T21:05:33.139Z,22.60
2018-06-05T21:08:01.290Z,22.40
2018-06-05T21:10:29.440Z,22.30
2018-06-05T21:12:57.564Z,22.30
2018-06-05T21:15:25.689Z,22.30
2018-06-05T21:17:53.812Z,22.20
2018-06-05T21:20:21.967Z,22.20
2018-06-05T21:22:50.087Z,22.10
2018-06-05T21:25:19.143Z,22.10
2018-06-05T21:27:47.296Z,22.10
2018-06-05T21:30:15.491Z,22.00
2018-06-05T21:32:43.559Z,22.00
2018-06-05T21:35:11.691Z,21.90
2018-06-05T21:37:39.853Z,21.90
2018-06-05T21:40:08.011Z,21.80
2018-06-05T21:42:36.195Z,21.80
2018-06-05T21:45:04.395Z,21.80
2018-06-05T21:47:32.543Z,21.80
2018-06-05T21:50:00.729Z,21.80
2018-06-05T21:52:28.888Z,21.80
2018-06-05T21:54:57.036Z,21.70
2018-06-05T21:59:53.101Z,21.60
2018-06-05T22:02:21.288Z,21.50
2018-06-05T22:04:49.455Z,21.40
2018-06-05T22:07:17.601Z,21.40
2018-06-05T22:09:46.651Z,21.30
2018-06-05T22:12:14.809Z,21.20
2018-06-05T22:17:34.506Z,21.20
2018-06-05T22:20:02.614Z,21.10
2018-06-05T22:22:30.712Z,21.10
2018-06-05T22:24:58.799Z,21.00
2018-06-05T22:27:26.899Z,20.90
2018-06-05T22:29:55.083Z,20.90
2018-06-05T22:32:23.194Z,21.00
2018-06-05T22:34:51.817Z,21.00
2018-06-05T22:37:19.908Z,21.00
2018-06-05T22:39:48.003Z,21.00
2018-06-05T22:42:16.109Z,21.00
2018-06-05T22:44:44.183Z,20.90
2018-06-05T22:47:12.284Z,20.80
2018-06-05T22:49:40.368Z,20.80
2018-06-05T22:52:08.555Z,20.70
2018-06-05T22:54:36.651Z,20.60
2018-06-05T22:57:04.779Z,20.60
2018-06-05T22:59:32.887Z,20.60
2018-06-05T23:02:00.997Z,20.60
2018-06-05T23:04:29.071Z,20.60
2018-06-05T23:06:57.165Z,20.50
2018-06-05T23:09:25.262Z,20.30
2018-06-05T23:11:53.363Z,20.50
2018-06-05T23:14:21.452Z,20.50
2018-06-05T23:16:49.543Z,20.40
2018-06-05T23:19:17.638Z,20.30
2018-06-05T23:21:45.726Z,20.30
2018-06-05T23:24:13.815Z,20.30
2018-06-05T23:26:41.928Z,20.40
2018-06-05T23:29:10.023Z,20.40
2018-06-05T23:31:38.148Z,20.30
2018-06-05T23:34:06.271Z,20.20
2018-06-05T23:36:34.370Z,20.20
2018-06-05T23:39:02.928Z,20.30
2018-06-05T23:41:31.041Z,20.30
2018-06-05T23:43:59.124Z,20.30
2018-06-05T23:46:27.219Z,20.20
2018-06-05T23:48:55.313Z,20.20
2018-06-05T23:51:23.456Z,20.10
2018-06-05T23:56:25.214Z,20.00
2018-06-05T23:58:53.366Z,19.90
